createdAt,value
2019-04-11T08:10:41.558Z,31.80
2019-04-11T08:15:46.266Z,27.37
2019-04-11T08:20:50.538Z,28.13
2019-04-11T08:25:55.803Z,30.00
2019-04-11T08:30:59.820Z,29.80
2019-04-11T08:36:05.115Z,33.63
2019-04-11T08:41:09.463Z,34.70
2019-04-11T08:46:13.574Z,27.77
2019-04-11T08:51:19.177Z,25.40
2019-04-11T08:56:25.034Z,28.53
2019-04-11T09:01:33.869Z,32.63
2019-04-11T09:06:38.979Z,33.33
2019-04-11T09:11:44.657Z,26.63
2019-04-11T09:16:49.950Z,31.70
2019-04-11T09:21:54.295Z,29.77
2019-04-11T09:26:58.878Z,23.77
2019-04-11T09:32:04.296Z,34.60
2019-04-11T09:37:09.460Z,27.87
2019-04-11T09:42:14.639Z,23.47
2019-04-11T09:47:22.213Z,26.23
2019-04-11T09:52:26.957Z,26.50
2019-04-11T09:57:32.407Z,27.03
2019-04-11T10:02:37.035Z,24.50
2019-04-11T10:07:41.969Z,23.73
2019-04-11T10:12:46.522Z,25.00
2019-04-11T10:17:50.618Z,20.43
2019-04-11T10:22:56.346Z,18.73
2019-04-11T10:28:01.219Z,20.53
2019-04-11T10:33:06.616Z,27.50
2019-04-11T10:38:11.955Z,21.07
2019-04-11T10:43:16.295Z,21.40
2019-04-11T10:48:33.524Z,20.57
2019-04-11T10:58:57.868Z,22.73
2019-04-11T11:04:03.282Z,26.43
2019-04-11T11:09:08.011Z,18.77
2019-04-11T11:14:12.370Z,27.30
2019-04-11T11:19:33.719Z,18.73
2019-04-11T11:24:22.330Z,27.70
2019-04-11T11:29:28.926Z,22.00
2019-04-11T11:34:33.128Z,15.97
2019-04-11T11:39:37.551Z,19.27
2019-04-11T11:44:41.669Z,19.70
2019-04-11T11:49:55.545Z,18.97
2019-04-11T11:54:55.634Z,21.10
2019-04-11T12:00:00.793Z,24.70
2019-04-11T12:05:11.286Z,15.70
2019-04-11T12:10:13.909Z,16.03
2019-04-11T12:15:20.953Z,20.47
2019-04-11T12:20:24.937Z,20.90
2019-04-11T12:25:29.347Z,23.30
2019-04-11T12:30:35.580Z,24.60
2019-04-11T12:35:40.122Z,28.60
2019-04-11T12:40:44.258Z,20.43
2019-04-11T12:45:51.270Z,29.57
2019-04-11T12:50:57.599Z,26.60
2019-04-11T12:56:02.021Z,22.87
2019-04-11T13:01:06.069Z,25.57
2019-04-11T13:06:10.207Z,19.67
2019-04-11T13:11:14.429Z,27.67
2019-04-11T13:16:18.581Z,25.83
2019-04-11T13:21:23.189Z,25.93
2019-04-11T13:26:27.549Z,23.10
2019-04-11T13:31:31.749Z,23.63
2019-04-11T13:36:35.880Z,22.83
2019-04-11T13:41:39.963Z,18.90
2019-04-11T13:46:44.248Z,21.03
2019-04-11T13:51:48.847Z,23.40
2019-04-11T13:56:52.961Z,19.57
2019-04-11T14:01:57.252Z,24.00
2019-04-11T14:07:02.966Z,26.60
2019-04-11T14:12:10.203Z,22.43
2019-04-11T14:17:14.602Z,21.10
2019-04-11T14:22:18.761Z,24.23
2019-04-11T14:27:22.827Z,25.70
2019-04-11T14:32:27.030Z,24.23
2019-04-11T14:37:38.038Z,23.57
2019-04-11T14:42:37.129Z,21.90
2019-04-11T14:47:41.148Z,20.17
2019-04-11T14:52:46.706Z,27.03
2019-04-11T14:57:53.546Z,24.53
2019-04-11T15:02:56.959Z,23.80
2019-04-11T15:08:01.359Z,25.37
2019-04-11T15:13:05.331Z,22.73
2019-04-11T15:18:09.223Z,20.57
2019-04-11T15:23:13.297Z,24.07
2019-04-11T15:28:17.302Z,28.13
2019-04-11T15:33:21.670Z,21.00
2019-04-11T15:38:25.572Z,21.23
2019-04-11T15:43:29.482Z,18.57
2019-04-11T15:48:33.476Z,19.70
2019-04-11T15:53:37.537Z,20.67
2019-04-11T15:58:42.581Z,17.97
2019-04-11T16:03:47.177Z,21.03
2019-04-11T16:08:51.111Z,19.80
2019-04-11T16:13:55.041Z,15.77
2019-04-11T16:18:59.209Z,20.97
2019-04-11T16:24:03.228Z,16.67
2019-04-11T16:29:09.200Z,14.33
2019-04-11T16:34:15.903Z,16.03
2019-04-11T16:39:19.915Z,19.30
2019-04-11T16:44:25.526Z,15.83
2019-04-11T16:49:29.759Z,21.10
2019-04-11T16:54:33.899Z,17.80
2019-04-11T16:59:37.955Z,17.90
2019-04-11T17:04:42.110Z,14.17
2019-04-11T17:09:46.221Z,15.57
2019-04-11T17:14:50.255Z,16.73
2019-04-11T17:19:54.270Z,14.97
2019-04-11T17:24:58.347Z,14.43
2019-04-11T17:30:02.442Z,16.23
2019-04-11T17:35:06.791Z,19.83
2019-04-11T17:40:11.427Z,8.80
2019-04-11T17:45:15.499Z,18.07
2019-04-11T17:50:19.544Z,12.47
2019-04-11T17:55:24.510Z,12.67
2019-04-11T18:00:29.970Z,12.60
2019-04-11T18:05:34.410Z,12.97
2019-04-11T18:10:38.485Z,13.33
2019-04-11T18:15:45.606Z,17.57
2019-04-11T18:20:49.706Z,15.83
2019-04-11T18:25:53.667Z,11.33
2019-04-11T18:30:57.822Z,19.80
2019-04-11T18:36:02.862Z,10.43
2019-04-11T18:41:07.079Z,10.20
2019-04-11T18:46:11.119Z,15.93
2019-04-11T18:51:18.080Z,15.13
2019-04-11T18:56:22.163Z,10.20
2019-04-11T19:01:26.295Z,11.13
2019-04-11T19:06:31.324Z,16.00
2019-04-11T19:11:35.468Z,14.57
2019-04-11T19:16:39.427Z,9.90
2019-04-11T19:21:43.532Z,14.47
2019-04-11T19:26:47.526Z,9.57
2019-04-11T19:31:51.626Z,13.30
2019-04-11T19:36:55.807Z,10.27
2019-04-11T19:41:59.867Z,10.67
2019-04-11T19:47:04.047Z,15.00
2019-04-11T19:52:08.323Z,12.83
2019-04-11T19:57:12.450Z,10.30
2019-04-11T20:02:16.508Z,16.80
2019-04-11T20:07:20.549Z,20.37
2019-04-11T20:12:27.728Z,20.13
2019-04-11T20:17:43.763Z,14.33
2019-04-11T20:22:42.548Z,17.30
2019-04-11T20:27:48.084Z,9.30
2019-04-11T20:32:52.467Z,15.47
2019-04-11T20:37:56.488Z,14.23
2019-04-11T20:43:00.547Z,19.63
2019-04-11T20:48:04.747Z,14.47
2019-04-11T20:53:12.841Z,14.97
2019-04-11T20:58:26.540Z,11.53
2019-04-11T21:03:20.462Z,14.57
2019-04-11T21:08:24.506Z,14.83
2019-04-11T21:13:28.487Z,16.10
2019-04-11T21:18:32.480Z,18.13
2019-04-11T21:23:36.666Z,14.53
2019-04-11T21:28:40.768Z,15.17
2019-04-11T21:33:44.787Z,16.80
2019-04-11T21:38:48.867Z,17.63
2019-04-11T21:43:52.882Z,12.47
2019-04-11T21:48:56.987Z,16.63
2019-04-11T21:54:01.206Z,16.00
2019-04-11T21:59:05.426Z,15.53
2019-04-11T22:04:09.808Z,13.97
2019-04-11T22:09:16.836Z,14.57
2019-04-11T22:14:20.813Z,21.57
2019-04-11T22:19:24.676Z,17.43
2019-04-11T22:24:29.808Z,18.57
2019-04-11T22:29:35.626Z,14.07
2019-04-11T22:34:39.587Z,21.50
2019-04-11T22:39:43.466Z,15.37
2019-04-11T22:44:47.487Z,17.03
2019-04-11T22:49:51.441Z,17.47
2019-04-11T22:54:55.626Z,21.13
2019-04-11T22:59:59.627Z,18.37
2019-04-11T23:05:03.722Z,23.37
2019-04-11T23:10:07.911Z,16.97
2019-04-11T23:15:14.888Z,20.67
2019-04-11T23:20:17.685Z,16.90
2019-04-11T23:25:21.590Z,23.67
2019-04-11T23:30:25.543Z,19.70
2019-04-11T23:35:29.541Z,21.30
2019-04-11T23:40:33.486Z,19.03
2019-04-11T23:45:37.430Z,25.20
2019-04-11T23:50:41.436Z,21.03
2019-04-11T23:55:45.379Z,22.43
